createdAt,value
2023-09-13T00:00:27.057Z,16.07
2023-09-13T00:02:53.653Z,16.42
2023-09-13T00:05:20.443Z,20.05
2023-09-13T00:07:47.131Z,13.15
2023-09-13T00:10:13.612Z,13.10
2023-09-13T00:12:40.221Z,11.68
2023-09-13T00:15:07.286Z,12.43
2023-09-13T00:17:34.449Z,11.98
2023-09-13T00:20:01.311Z,12.98
2023-09-13T00:22:27.762Z,11.77
2023-09-13T00:24:54.221Z,12.15
2023-09-13T00:27:20.688Z,11.95
2023-09-13T00:29:47.117Z,10.35
2023-09-13T00:32:13.607Z,9.50
2023-09-13T00:34:40.134Z,11.40
2023-09-13T00:37:06.819Z,9.75
2023-09-13T00:39:33.273Z,13.32
2023-09-13T00:41:59.720Z,12.98
2023-09-13T00:44:26.183Z,11.32
2023-09-13T00:46:52.886Z,11.38
2023-09-13T00:49:19.682Z,11.43
2023-09-13T00:51:46.276Z,11.65
2023-09-13T00:54:14.159Z,10.77
2023-09-13T00:56:42.642Z,11.98
2023-09-13T00:59:10.690Z,10.23
2023-09-13T01:01:37.407Z,10.00
2023-09-13T01:04:04.582Z,14.70
2023-09-13T01:06:31.996Z,10.57
2023-09-13T01:08:58.979Z,10.60
2023-09-13T01:11:26.299Z,9.60
2023-09-13T01:13:52.799Z,10.52
2023-09-13T01:16:47.298Z,7.43
2023-09-13T01:19:45.805Z,9.25
2023-09-13T01:22:27.549Z,7.45
2023-09-13T01:25:16.905Z,11.27
2023-09-13T01:28:02.126Z,12.27
2023-09-13T01:30:29.914Z,9.43
2023-09-13T01:32:58.684Z,8.02
2023-09-13T01:35:25.222Z,8.77
2023-09-13T01:37:51.759Z,11.25
2023-09-13T01:40:18.427Z,10.70
2023-09-13T01:42:46.540Z,10.40
2023-09-13T01:45:15.419Z,9.85
2023-09-13T01:47:47.231Z,9.43
2023-09-13T01:50:15.207Z,10.02
2023-09-13T01:52:41.767Z,9.50
2023-09-13T01:55:08.997Z,10.32
2023-09-13T01:57:35.704Z,7.20
2023-09-13T02:00:05.825Z,6.93
2023-09-13T02:02:32.307Z,6.95
2023-09-13T02:04:58.830Z,7.25
2023-09-13T02:07:25.355Z,8.77
2023-09-13T02:09:53.369Z,9.98
2023-09-13T02:12:19.962Z,9.55
2023-09-13T02:14:46.532Z,7.70
2023-09-13T02:17:12.947Z,9.40
2023-09-13T02:19:39.482Z,4.70
2023-09-13T02:22:06.104Z,7.20
2023-09-13T02:24:34.019Z,5.18
2023-09-13T02:27:01.038Z,4.18
2023-09-13T02:29:27.506Z,4.30
2023-09-13T02:31:54.286Z,4.47
2023-09-13T02:34:21.131Z,5.75
2023-09-13T02:36:49.010Z,5.18
2023-09-13T02:39:51.035Z,5.82
2023-09-13T02:42:17.500Z,5.55
2023-09-13T02:44:43.991Z,5.40
2023-09-13T02:47:10.795Z,5.15
2023-09-13T02:49:37.271Z,5.18
2023-09-13T02:52:04.054Z,6.35
2023-09-13T02:54:30.854Z,4.88
2023-09-13T02:56:57.432Z,9.95
2023-09-13T02:59:23.967Z,4.30
2023-09-13T03:01:51.736Z,4.65
2023-09-13T03:04:18.610Z,3.85
2023-09-13T03:06:45.168Z,6.97
2023-09-13T03:09:11.695Z,4.15
2023-09-13T03:11:38.323Z,10.25
2023-09-13T03:14:06.240Z,6.43
2023-09-13T03:16:32.767Z,9.07
2023-09-13T03:18:59.486Z,6.03
2023-09-13T03:21:26.198Z,5.10
2023-09-13T03:23:52.724Z,7.03
2023-09-13T03:26:24.756Z,6.82
2023-09-13T03:28:56.205Z,10.90
2023-09-13T03:31:25.141Z,9.95
2023-09-13T03:33:54.357Z,9.23
2023-09-13T03:36:21.700Z,11.18
2023-09-13T03:38:48.503Z,12.55
2023-09-13T03:41:17.288Z,14.10
2023-09-13T03:43:44.005Z,12.38
2023-09-13T03:46:11.067Z,15.95
2023-09-13T03:48:39.021Z,14.57
2023-09-13T03:51:05.972Z,18.48
2023-09-13T03:53:32.742Z,19.63
2023-09-13T03:56:00.238Z,17.85
2023-09-13T03:58:27.054Z,14.98
2023-09-13T04:00:54.468Z,19.55
2023-09-13T04:03:21.358Z,17.63
2023-09-13T04:05:48.175Z,17.85
2023-09-13T04:08:14.858Z,24.10
2023-09-13T04:10:41.440Z,28.15
2023-09-13T04:13:08.153Z,24.23
2023-09-13T04:15:34.809Z,23.17
2023-09-13T04:18:01.416Z,24.38
2023-09-13T04:20:27.978Z,22.35
2023-09-13T04:22:54.399Z,23.90
2023-09-13T04:25:20.890Z,23.30
2023-09-13T04:27:48.610Z,23.13
2023-09-13T04:30:16.907Z,26.48
2023-09-13T04:32:44.206Z,22.75
2023-09-13T04:35:13.279Z,23.77
2023-09-13T04:37:40.349Z,22.92
2023-09-13T04:40:07.495Z,22.52
2023-09-13T04:42:38.676Z,23.67
2023-09-13T04:45:05.849Z,23.10
2023-09-13T04:47:32.547Z,24.75
2023-09-13T04:49:59.295Z,24.65
2023-09-13T04:52:25.852Z,26.67
2023-09-13T04:54:52.374Z,24.80
2023-09-13T04:57:18.942Z,21.50
2023-09-13T04:59:47.415Z,24.92
2023-09-13T05:02:14.095Z,26.27
2023-09-13T05:04:41.227Z,28.00
2023-09-13T05:07:08.420Z,25.63
2023-09-13T05:09:36.550Z,28.87
2023-09-13T05:12:03.306Z,26.15
2023-09-13T05:14:29.757Z,28.45
2023-09-13T05:16:56.294Z,27.63
2023-09-13T05:19:22.863Z,26.90
2023-09-13T05:21:49.465Z,33.00
2023-09-13T05:24:15.974Z,28.60
2023-09-13T05:26:42.424Z,26.65
2023-09-13T05:29:08.857Z,36.58
2023-09-13T05:31:35.428Z,30.23
2023-09-13T05:34:02.971Z,31.70
2023-09-13T05:36:29.477Z,34.15
2023-09-13T05:38:55.890Z,29.58
2023-09-13T05:41:24.006Z,32.40
2023-09-13T05:43:50.833Z,33.42
2023-09-13T05:46:17.870Z,29.70
2023-09-13T05:48:44.482Z,29.88
2023-09-13T05:51:10.902Z,31.58
2023-09-13T05:53:37.407Z,19.88
2023-09-13T05:56:06.810Z,14.10
2023-09-13T05:58:33.455Z,5.00
2023-09-13T06:01:00.510Z,3.92
2023-09-13T06:03:27.406Z,1.10
2023-09-13T06:05:53.963Z,2.75
2023-09-13T06:08:20.723Z,1.95
2023-09-13T06:10:47.543Z,2.15
2023-09-13T06:13:16.206Z,1.15
2023-09-13T06:15:43.121Z,0.20
2023-09-13T06:18:09.759Z,0.50
2023-09-13T06:20:36.700Z,1.67
2023-09-13T06:23:03.193Z,1.75
2023-09-13T06:25:29.714Z,0.60
2023-09-13T06:27:56.351Z,0.60
2023-09-13T06:30:23.193Z,1.05
2023-09-13T06:33:05.478Z,0.90
2023-09-13T06:35:38.428Z,1.00
2023-09-13T06:38:06.239Z,0.50
2023-09-13T06:40:36.211Z,2.47
2023-09-13T06:43:03.550Z,1.73
2023-09-13T06:45:31.167Z,2.50
2023-09-13T06:47:59.097Z,3.22
2023-09-13T06:50:37.491Z,0.75
2023-09-13T06:53:30.500Z,0.95
2023-09-13T06:56:02.380Z,0.90
2023-09-13T06:58:33.953Z,1.98
2023-09-13T07:03:34.564Z,1.90
2023-09-13T07:06:01.767Z,1.52
2023-09-13T07:08:28.566Z,1.67
2023-09-13T07:10:55.048Z,4.97
2023-09-13T07:13:21.558Z,2.35
2023-09-13T07:15:48.936Z,3.38
2023-09-13T07:18:16.180Z,3.08
2023-09-13T07:20:42.764Z,3.63
2023-09-13T07:23:10.043Z,2.75
2023-09-13T07:25:36.560Z,3.67
2023-09-13T07:28:03.712Z,3.63
2023-09-13T07:30:30.289Z,3.90
2023-09-13T07:32:57.186Z,3.20
2023-09-13T07:35:24.748Z,5.22
2023-09-13T07:37:51.466Z,4.77
2023-09-13T07:40:18.090Z,2.80
2023-09-13T07:42:44.698Z,1.60
2023-09-13T07:45:11.190Z,3.67
2023-09-13T07:47:37.883Z,3.85
2023-09-13T07:50:04.768Z,2.78
2023-09-13T07:52:37.643Z,3.27
2023-09-13T07:55:14.989Z,3.95
2023-09-13T07:57:41.443Z,5.50
2023-09-13T08:00:08.373Z,5.78
2023-09-13T08:02:34.775Z,3.42
2023-09-13T08:05:01.339Z,5.88
2023-09-13T08:07:28.353Z,4.07
2023-09-13T08:09:54.851Z,5.95
2023-09-13T08:12:21.364Z,1.88
2023-09-13T08:14:47.787Z,3.97
2023-09-13T08:17:14.303Z,5.55
2023-09-13T08:19:40.830Z,3.65
2023-09-13T08:22:09.597Z,2.05
2023-09-13T08:24:36.069Z,2.03
2023-09-13T08:27:02.518Z,3.25
2023-09-13T08:29:29.033Z,5.60
2023-09-13T08:31:55.559Z,2.00
2023-09-13T08:34:22.044Z,6.47
2023-09-13T08:36:50.240Z,2.10
2023-09-13T08:39:16.960Z,1.90
2023-09-13T08:41:50.460Z,3.35
2023-09-13T08:44:23.554Z,3.25
2023-09-13T08:46:57.022Z,1.83
2023-09-13T08:49:24.237Z,2.55
2023-09-13T08:51:52.617Z,4.20
2023-09-13T08:54:20.332Z,3.10
2023-09-13T08:56:46.978Z,3.50
2023-09-13T08:59:14.280Z,1.70
2023-09-13T09:01:47.489Z,2.67
2023-09-13T09:04:15.556Z,1.30
2023-09-13T09:06:43.214Z,3.50
2023-09-13T09:09:10.418Z,2.83
2023-09-13T09:11:39.261Z,1.63
2023-09-13T09:14:05.913Z,3.33
2023-09-13T09:16:35.637Z,2.17
2023-09-13T09:19:05.917Z,1.90
2023-09-13T09:21:41.828Z,7.90
2023-09-13T09:24:08.466Z,3.92
2023-09-13T09:26:34.970Z,1.75
2023-09-13T09:29:34.875Z,1.45
2023-09-13T09:32:01.568Z,2.35
2023-09-13T09:34:32.136Z,3.58
2023-09-13T09:37:08.154Z,1.70
2023-09-13T09:39:43.933Z,2.65
2023-09-13T09:42:16.941Z,4.60
2023-09-13T09:44:44.315Z,2.65
2023-09-13T09:47:21.234Z,4.43
2023-09-13T09:49:48.907Z,1.85
2023-09-13T09:52:16.815Z,2.03
2023-09-13T09:54:48.804Z,2.58
2023-09-13T09:57:27.210Z,3.33
2023-09-13T09:59:53.822Z,3.60
2023-09-13T10:02:28.790Z,4.28
2023-09-13T10:04:55.620Z,4.95
2023-09-13T10:07:22.106Z,3.78
2023-09-13T10:09:48.595Z,6.50
2023-09-13T10:12:16.183Z,6.00
2023-09-13T10:14:45.406Z,3.88
2023-09-13T10:17:12.689Z,2.38
2023-09-13T10:19:39.884Z,4.78
2023-09-13T10:22:06.385Z,5.35
2023-09-13T10:24:39.437Z,3.17
2023-09-13T10:27:09.709Z,3.38
2023-09-13T10:29:46.648Z,3.70
2023-09-13T10:32:16.404Z,4.25
2023-09-13T10:34:50.002Z,3.13
2023-09-13T10:37:33.607Z,2.88
2023-09-13T10:40:23.333Z,2.33
2023-09-13T10:42:50.288Z,2.85
2023-09-13T10:45:20.298Z,4.05
2023-09-13T10:47:49.221Z,5.25
2023-09-13T10:50:16.923Z,3.35
2023-09-13T10:52:45.180Z,3.95
2023-09-13T10:55:13.594Z,2.00
2023-09-13T10:57:41.957Z,2.13
2023-09-13T11:00:12.905Z,2.45
2023-09-13T11:02:42.667Z,3.03
2023-09-13T11:05:13.954Z,1.38
2023-09-13T11:07:49.294Z,2.45
2023-09-13T11:10:20.589Z,3.10
2023-09-13T11:12:51.447Z,3.00
2023-09-13T11:15:27.580Z,3.10
2023-09-13T11:17:55.745Z,2.25
2023-09-13T11:20:29.701Z,3.65
2023-09-13T11:26:00.823Z,4.07
2023-09-13T11:28:38.425Z,4.63
2023-09-13T11:31:10.605Z,1.48
2023-09-13T11:33:41.147Z,2.33
2023-09-13T11:36:09.180Z,1.83
2023-09-13T11:38:36.801Z,4.00
2023-09-13T11:41:04.144Z,3.58
2023-09-13T11:43:34.535Z,2.80
2023-09-13T11:46:02.179Z,4.70
2023-09-13T11:48:57.187Z,5.73
2023-09-13T11:51:39.419Z,1.93
2023-09-13T11:54:17.033Z,2.65
2023-09-13T11:56:48.822Z,3.63
2023-09-13T11:59:18.617Z,5.07
2023-09-13T12:01:50.307Z,2.28
2023-09-13T12:06:55.147Z,3.15
2023-09-13T12:09:28.856Z,2.35
2023-09-13T12:12:01.420Z,2.90
2023-09-13T12:14:57.212Z,1.92
2023-09-13T12:17:20.306Z,3.05
2023-09-13T12:19:48.182Z,3.10
2023-09-13T12:22:18.337Z,1.92
2023-09-13T12:24:59.179Z,2.42
2023-09-13T12:27:25.682Z,3.15
2023-09-13T12:29:53.133Z,3.13
2023-09-13T12:32:19.706Z,3.08
2023-09-13T12:34:46.349Z,3.47
2023-09-13T12:37:12.999Z,4.90
2023-09-13T12:39:39.547Z,1.85
2023-09-13T12:42:10.133Z,2.53
2023-09-13T12:44:38.448Z,3.92
2023-09-13T12:47:06.167Z,2.45
2023-09-13T12:49:32.770Z,3.85
2023-09-13T12:51:59.378Z,3.65
2023-09-13T12:54:26.390Z,3.65
2023-09-13T12:56:52.885Z,5.22
2023-09-13T12:59:19.389Z,1.75
2023-09-13T13:01:45.929Z,4.93
2023-09-13T13:04:12.756Z,3.45
2023-09-13T13:06:55.881Z,4.35
2023-09-13T13:09:23.440Z,3.20
2023-09-13T13:11:50.823Z,3.20
2023-09-13T13:14:20.537Z,3.10
2023-09-13T13:16:54.478Z,4.05
2023-09-13T13:19:51.824Z,3.10
2023-09-13T13:22:19.594Z,3.00
2023-09-13T13:24:46.300Z,4.05
2023-09-13T13:27:12.956Z,2.47
2023-09-13T13:29:39.977Z,3.45
2023-09-13T13:32:07.358Z,2.28
2023-09-13T13:34:34.228Z,5.65
2023-09-13T13:37:00.770Z,5.53
2023-09-13T13:39:29.270Z,6.57
2023-09-13T13:41:56.020Z,5.22
2023-09-13T13:44:22.562Z,1.77
2023-09-13T13:46:49.037Z,3.60
2023-09-13T13:49:17.816Z,1.50
2023-09-13T13:51:46.578Z,2.55
2023-09-13T13:54:13.186Z,1.75
2023-09-13T13:56:41.426Z,3.22
2023-09-13T13:59:10.247Z,5.40
2023-09-13T14:01:36.896Z,2.28
2023-09-13T14:04:03.992Z,5.68
2023-09-13T14:06:30.766Z,5.75
2023-09-13T14:08:57.296Z,4.10
2023-09-13T14:11:24.921Z,2.05
2023-09-13T14:13:51.522Z,3.30
2023-09-13T14:16:18.006Z,1.92
2023-09-13T14:18:44.596Z,3.88
2023-09-13T14:21:11.069Z,2.58
2023-09-13T14:23:40.618Z,2.50
2023-09-13T14:26:07.068Z,4.80
2023-09-13T14:28:36.420Z,3.17
2023-09-13T14:31:02.933Z,4.95
2023-09-13T14:33:32.729Z,2.00
2023-09-13T14:35:59.196Z,2.90
2023-09-13T14:38:26.842Z,2.20
2023-09-13T14:40:53.377Z,5.38
2023-09-13T14:43:19.827Z,2.05
2023-09-13T14:45:46.805Z,3.15
2023-09-13T14:48:13.433Z,4.55
2023-09-13T14:50:41.106Z,2.90
2023-09-13T14:53:07.556Z,5.13
2023-09-13T14:55:34.002Z,4.82
2023-09-13T14:58:00.848Z,3.97
2023-09-13T15:00:27.348Z,3.55
2023-09-13T15:02:53.878Z,3.08
2023-09-13T15:05:20.537Z,7.53
2023-09-13T15:07:46.970Z,2.83
2023-09-13T15:10:13.767Z,7.03
2023-09-13T15:12:40.358Z,2.83
2023-09-13T15:15:07.187Z,2.88
2023-09-13T15:17:34.797Z,2.10
2023-09-13T15:20:01.469Z,2.33
2023-09-13T15:22:29.872Z,3.83
2023-09-13T15:24:56.514Z,10.38
2023-09-13T15:27:25.996Z,3.75
2023-09-13T15:29:52.639Z,2.03
2023-09-13T15:32:19.106Z,3.80
2023-09-13T15:34:45.620Z,6.03
2023-09-13T15:37:12.064Z,4.90
2023-09-13T15:39:41.037Z,2.40
2023-09-13T15:42:07.487Z,3.30
2023-09-13T15:44:33.977Z,4.53
2023-09-13T15:47:00.403Z,3.53
2023-09-13T15:49:27.465Z,3.92
2023-09-13T15:51:54.020Z,1.50
2023-09-13T15:54:20.816Z,1.63
2023-09-13T15:56:48.078Z,3.95
2023-09-13T15:59:14.525Z,2.73
2023-09-13T16:01:41.086Z,1.92
2023-09-13T16:04:08.799Z,2.58
2023-09-13T16:06:35.827Z,1.88
2023-09-13T16:09:02.339Z,7.72
2023-09-13T16:11:32.550Z,4.70
2023-09-13T16:13:59.187Z,3.15
2023-09-13T16:16:26.796Z,3.58
2023-09-13T16:18:53.537Z,3.03
2023-09-13T16:21:20.622Z,2.50
2023-09-13T16:23:47.513Z,2.92
2023-09-13T16:26:14.031Z,2.58
2023-09-13T16:28:40.602Z,5.10
2023-09-13T16:31:07.327Z,3.25
2023-09-13T16:33:34.158Z,2.38
2023-09-13T16:36:00.675Z,2.60
2023-09-13T16:38:27.101Z,6.65
2023-09-13T16:40:53.573Z,12.40
2023-09-13T16:43:20.008Z,4.97
2023-09-13T16:45:46.555Z,2.47
2023-09-13T16:48:23.692Z,5.10
2023-09-13T16:50:54.744Z,2.22
2023-09-13T16:53:22.163Z,1.98
2023-09-13T16:55:48.602Z,3.35
2023-09-13T16:58:16.196Z,2.95
2023-09-13T17:00:44.113Z,3.78
2023-09-13T17:03:10.985Z,2.55
2023-09-13T17:05:37.565Z,3.95
2023-09-13T17:08:04.214Z,6.65
2023-09-13T17:10:31.339Z,3.10
2023-09-13T17:12:57.852Z,5.82
2023-09-13T17:15:24.438Z,3.15
2023-09-13T17:17:50.894Z,2.83
2023-09-13T17:20:17.468Z,2.92
2023-09-13T17:22:43.888Z,6.82
2023-09-13T17:25:10.412Z,4.20
2023-09-13T17:27:36.874Z,3.53
2023-09-13T17:30:03.574Z,8.15
2023-09-13T17:32:30.079Z,6.95
2023-09-13T17:34:56.513Z,3.72
2023-09-13T17:37:23.134Z,2.93
2023-09-13T17:39:49.793Z,4.20
2023-09-13T17:42:16.339Z,2.50
2023-09-13T17:44:43.480Z,2.03
2023-09-13T17:47:09.953Z,6.50
2023-09-13T17:49:36.414Z,2.97
2023-09-13T17:52:02.843Z,3.90
2023-09-13T17:54:29.322Z,2.50
2023-09-13T17:56:55.842Z,2.75
2023-09-13T17:59:22.342Z,3.35
2023-09-13T18:01:49.499Z,6.80
2023-09-13T18:04:16.169Z,5.47
2023-09-13T18:06:42.732Z,4.63
2023-09-13T18:09:09.164Z,6.82
2023-09-13T18:11:35.604Z,1.52
2023-09-13T18:14:02.013Z,2.53
2023-09-13T18:16:29.369Z,6.95
2023-09-13T18:18:56.000Z,3.10
2023-09-13T18:21:22.505Z,2.30
2023-09-13T18:23:48.992Z,6.47
2023-09-13T18:26:18.611Z,2.75
2023-09-13T18:28:46.749Z,3.53
2023-09-13T18:31:13.993Z,2.53
2023-09-13T18:33:40.689Z,5.68
2023-09-13T18:36:07.866Z,2.17
2023-09-13T18:38:35.026Z,9.30
2023-09-13T18:41:01.458Z,4.95
2023-09-13T18:43:27.967Z,3.85
2023-09-13T18:45:59.438Z,4.72
2023-09-13T18:48:26.251Z,3.78
2023-09-13T18:51:00.134Z,1.90
2023-09-13T18:53:28.195Z,6.35
2023-09-13T18:55:57.082Z,3.33
2023-09-13T18:58:25.294Z,3.10
2023-09-13T19:00:59.764Z,6.63
2023-09-13T19:03:27.608Z,3.30
2023-09-13T19:06:00.995Z,3.58
2023-09-13T19:08:29.041Z,4.07
2023-09-13T19:10:56.264Z,2.88
2023-09-13T19:13:22.836Z,3.60
2023-09-13T19:16:03.332Z,2.17
2023-09-13T19:18:31.336Z,6.00
2023-09-13T19:20:58.241Z,1.75
2023-09-13T19:23:26.625Z,2.17
2023-09-13T19:25:55.094Z,3.03
2023-09-13T19:28:22.719Z,2.92
2023-09-13T19:30:53.579Z,3.35
2023-09-13T19:33:26.853Z,5.43
2023-09-13T19:35:58.734Z,4.40
2023-09-13T19:38:30.379Z,2.28
2023-09-13T19:40:58.211Z,4.45
2023-09-13T19:43:26.131Z,2.78
2023-09-13T19:45:55.428Z,3.13
2023-09-13T19:48:22.043Z,1.92
2023-09-13T19:50:58.131Z,3.45
2023-09-13T19:53:25.718Z,3.60
2023-09-13T19:55:52.272Z,7.90
2023-09-13T19:58:18.737Z,3.28
2023-09-13T20:00:48.317Z,2.60
2023-09-13T20:03:15.609Z,2.25
2023-09-13T20:05:42.627Z,1.85
2023-09-13T20:08:09.806Z,6.18
2023-09-13T20:10:36.326Z,5.20
2023-09-13T20:13:06.992Z,2.65
2023-09-13T20:15:33.593Z,5.55
2023-09-13T20:18:00.778Z,2.35
2023-09-13T20:20:30.070Z,4.30
2023-09-13T20:22:56.581Z,2.80
2023-09-13T20:25:23.333Z,2.65
2023-09-13T20:27:49.935Z,3.22
2023-09-13T20:30:16.509Z,1.95
2023-09-13T20:32:43.053Z,4.85
2023-09-13T20:35:09.805Z,1.80
2023-09-13T20:37:36.329Z,3.67
2023-09-13T20:40:05.194Z,3.80
2023-09-13T20:42:31.844Z,3.60
2023-09-13T20:44:58.367Z,6.45
2023-09-13T20:47:24.781Z,4.75
2023-09-13T20:49:51.180Z,6.47
2023-09-13T20:52:17.620Z,5.55
2023-09-13T20:54:44.207Z,5.73
2023-09-13T20:57:10.796Z,6.22
2023-09-13T20:59:37.266Z,5.75
2023-09-13T21:02:04.743Z,2.85
2023-09-13T21:04:32.977Z,7.30
2023-09-13T21:06:59.876Z,3.07
2023-09-13T21:09:29.126Z,2.10
2023-09-13T21:11:55.841Z,6.47
2023-09-13T21:14:22.414Z,5.15
2023-09-13T21:16:49.458Z,4.00
2023-09-13T21:19:16.239Z,3.35
2023-09-13T21:21:42.720Z,5.63
2023-09-13T21:24:09.274Z,2.38
2023-09-13T21:26:35.940Z,5.88
2023-09-13T21:29:02.385Z,4.25
2023-09-13T21:31:28.910Z,2.80
2023-09-13T21:33:55.465Z,2.67
2023-09-13T21:36:23.811Z,4.38
2023-09-13T21:38:50.949Z,1.52
2023-09-13T21:41:17.485Z,4.47
2023-09-13T21:43:43.989Z,4.38
2023-09-13T21:46:10.552Z,3.20
2023-09-13T21:48:41.897Z,4.47
2023-09-13T21:51:09.743Z,1.27
2023-09-13T21:53:36.169Z,2.88
2023-09-13T21:56:04.388Z,5.85
2023-09-13T21:58:32.129Z,2.75
2023-09-13T22:00:59.782Z,4.32
2023-09-13T22:03:30.702Z,6.50
2023-09-13T22:05:57.338Z,1.70
2023-09-13T22:08:23.796Z,5.95
2023-09-13T22:11:00.375Z,1.90
2023-09-13T22:13:26.806Z,3.03
2023-09-13T22:15:53.423Z,4.07
2023-09-13T22:18:19.954Z,4.05
2023-09-13T22:20:46.378Z,2.95
2023-09-13T22:23:12.783Z,2.97
2023-09-13T22:25:39.205Z,4.22
2023-09-13T22:28:06.080Z,4.85
2023-09-13T22:30:33.262Z,6.28
2023-09-13T22:32:59.797Z,2.80
2023-09-13T22:35:26.456Z,5.18
2023-09-13T22:37:52.846Z,5.20
2023-09-13T22:40:19.368Z,2.53
2023-09-13T22:42:46.191Z,7.88
2023-09-13T22:45:12.663Z,4.22
2023-09-13T22:47:39.208Z,6.28
2023-09-13T22:50:08.008Z,3.78
2023-09-13T22:52:34.743Z,2.88
2023-09-13T22:55:01.294Z,4.05
2023-09-13T22:57:30.673Z,2.77
2023-09-13T22:59:57.219Z,3.38
2023-09-13T23:02:23.697Z,6.20
2023-09-13T23:04:50.195Z,2.53
2023-09-13T23:07:16.806Z,3.28
2023-09-13T23:09:44.542Z,2.27
2023-09-13T23:12:11.149Z,3.60
2023-09-13T23:14:37.642Z,1.95
2023-09-13T23:17:04.419Z,3.90
2023-09-13T23:19:30.864Z,5.22
2023-09-13T23:21:57.316Z,4.65
2023-09-13T23:24:23.760Z,3.72
2023-09-13T23:26:51.754Z,5.05
2023-09-13T23:29:18.487Z,3.80
2023-09-13T23:31:44.955Z,7.05
2023-09-13T23:34:12.835Z,3.55
2023-09-13T23:36:39.459Z,6.28
2023-09-13T23:39:06.076Z,7.25
2023-09-13T23:41:32.600Z,5.85
2023-09-13T23:43:59.149Z,5.22
2023-09-13T23:46:25.916Z,6.22
2023-09-13T23:48:53.722Z,4.35
2023-09-13T23:51:20.249Z,5.70
2023-09-13T23:53:52.892Z,3.15
2023-09-13T23:56:21.106Z,4.38
2023-09-13T23:58:48.851Z,4.95
